sensor_id;sensor_type;location;lat;lon;timestamp;P1;durP1;ratioP1;P2;durP2;ratioP2
66371;SDS011;53168;51.146;17.120;2024-03-23T00:52:53;19.51;;;18.41;;
66371;SDS011;53168;51.146;17.120;2024-03-23T00:55:28;21.06;;;20.02;;
66371;SDS011;53168;51.146;17.120;2024-03-23T00:58:03;19.40;;;18.76;;
66371;SDS011;53168;51.146;17.120;2024-03-23T01:00:45;20.31;;;19.45;;
66371;SDS011;53168;51.146;17.120;2024-03-23T01:03:19;20.46;;;19.79;;
66371;SDS011;53168;51.146;17.120;2024-03-23T01:06:01;19.96;;;19.06;;
66371;SDS011;53168;51.146;17.120;2024-03-23T01:08:36;21.51;;;20.49;;
66371;SDS011;53168;51.146;17.120;2024-03-23T01:11:12;21.03;;;19.97;;
66371;SDS011;53168;51.146;17.120;2024-03-23T01:13:47;20.43;;;19.44;;
66371;SDS011;53168;51.146;17.120;2024-03-23T01:16:21;21.05;;;20.18;;
66371;SDS011;53168;51.146;17.120;2024-03-23T01:18:56;20.58;;;19.71;;
66371;SDS011;53168;51.146;17.120;2024-03-23T01:21:31;20.72;;;19.90;;
66371;SDS011;53168;51.146;17.120;2024-03-23T01:24:06;21.26;;;20.57;;
66371;SDS011;53168;51.146;17.120;2024-03-23T01:26:40;21.58;;;20.67;;
66371;SDS011;53168;51.146;17.120;2024-03-23T01:29:15;20.44;;;19.38;;
66371;SDS011;53168;51.146;17.120;2024-03-23T01:31:50;20.88;;;19.83;;
66371;SDS011;53168;51.146;17.120;2024-03-23T01:34:25;22.08;;;20.89;;
66371;SDS011;53168;51.146;17.120;2024-03-23T01:37:01;20.17;;;19.53;;
66371;SDS011;53168;51.146;17.120;2024-03-23T01:39:36;19.47;;;18.86;;
66371;SDS011;53168;51.146;17.120;2024-03-23T01:42:09;20.70;;;19.76;;
66371;SDS011;53168;51.146;17.120;2024-03-23T01:44:46;21.06;;;20.00;;
66371;SDS011;53168;51.146;17.120;2024-03-23T01:47:19;20.62;;;19.51;;
66371;SDS011;53168;51.146;17.120;2024-03-23T01:49:54;21.49;;;20.47;;
66371;SDS011;53168;51.146;17.120;2024-03-23T01:52:33;19.73;;;19.20;;
66371;SDS011;53168;51.146;17.120;2024-03-23T01:55:10;18.16;;;17.74;;
66371;SDS011;53168;51.146;17.120;2024-03-23T01:57:44;16.08;;;15.67;;
66371;SDS011;53168;51.146;17.120;2024-03-23T02:00:19;15.66;;;15.24;;
66371;SDS011;53168;51.146;17.120;2024-03-23T02:02:53;17.06;;;16.74;;
66371;SDS011;53168;51.146;17.120;2024-03-23T02:05:29;16.17;;;15.83;;
66371;SDS011;53168;51.146;17.120;2024-03-23T02:08:09;17.52;;;16.92;;
66371;SDS011;53168;51.146;17.120;2024-03-23T02:10:43;16.64;;;16.15;;
66371;SDS011;53168;51.146;17.120;2024-03-23T02:13:18;17.54;;;17.10;;
66371;SDS011;53168;51.146;17.120;2024-03-23T02:15:53;16.59;;;16.10;;
66371;SDS011;53168;51.146;17.120;2024-03-23T02:18:28;16.77;;;16.26;;
66371;SDS011;53168;51.146;17.120;2024-03-23T02:21:04;16.34;;;15.74;;
66371;SDS011;53168;51.146;17.120;2024-03-23T02:23:38;16.35;;;15.90;;
66371;SDS011;53168;51.146;17.120;2024-03-23T02:26:12;16.09;;;15.60;;
66371;SDS011;53168;51.146;17.120;2024-03-23T02:28:47;17.11;;;16.55;;
66371;SDS011;53168;51.146;17.120;2024-03-23T02:31:21;16.45;;;15.91;;
66371;SDS011;53168;51.146;17.120;2024-03-23T02:33:55;17.39;;;16.66;;
66371;SDS011;53168;51.146;17.120;2024-03-23T02:36:30;14.47;;;13.90;;
66371;SDS011;53168;51.146;17.120;2024-03-23T02:39:05;16.59;;;15.97;;
66371;SDS011;53168;51.146;17.120;2024-03-23T02:41:39;17.43;;;16.87;;
66371;SDS011;53168;51.146;17.120;2024-03-23T02:44:14;17.78;;;17.05;;
66371;SDS011;53168;51.146;17.120;2024-03-23T02:46:49;17.12;;;16.58;;
66371;SDS011;53168;51.146;17.120;2024-03-23T02:51:20;17.80;;;17.21;;
66371;SDS011;53168;51.146;17.120;2024-03-23T02:53:51;17.29;;;16.93;;
66371;SDS011;53168;51.146;17.120;2024-03-23T02:56:22;19.15;;;18.53;;
66371;SDS011;53168;51.146;17.120;2024-03-23T02:58:53;19.34;;;18.56;;
66371;SDS011;53168;51.146;17.120;2024-03-23T03:01:24;18.63;;;18.17;;
66371;SDS011;53168;51.146;17.120;2024-03-23T03:03:55;18.71;;;18.15;;
66371;SDS011;53168;51.146;17.120;2024-03-23T03:06:25;19.26;;;18.70;;
66371;SDS011;53168;51.146;17.120;2024-03-23T03:08:58;19.37;;;18.75;;
66371;SDS011;53168;51.146;17.120;2024-03-23T03:11:30;18.86;;;18.15;;
66371;SDS011;53168;51.146;17.120;2024-03-23T03:14:02;19.47;;;18.73;;
66371;SDS011;53168;51.146;17.120;2024-03-23T03:16:36;19.76;;;19.04;;
66371;SDS011;53168;51.146;17.120;2024-03-23T03:19:07;18.94;;;18.50;;
66371;SDS011;53168;51.146;17.120;2024-03-23T03:21:38;19.37;;;18.94;;
66371;SDS011;53168;51.146;17.120;2024-03-23T03:24:09;18.95;;;18.61;;
66371;SDS011;53168;51.146;17.120;2024-03-23T03:26:40;19.51;;;19.18;;
66371;SDS011;53168;51.146;17.120;2024-03-23T03:29:10;19.43;;;18.82;;
66371;SDS011;53168;51.146;17.120;2024-03-23T03:31:41;19.69;;;19.31;;
66371;SDS011;53168;51.146;17.120;2024-03-23T03:34:13;19.05;;;18.48;;
66371;SDS011;53168;51.146;17.120;2024-03-23T03:36:44;20.83;;;20.20;;
66371;SDS011;53168;51.146;17.120;2024-03-23T03:39:15;20.17;;;19.68;;
66371;SDS011;53168;51.146;17.120;2024-03-23T03:41:46;19.73;;;19.13;;
66371;SDS011;53168;51.146;17.120;2024-03-23T03:47:29;19.50;;;19.12;;
66371;SDS011;53168;51.146;17.120;2024-03-23T03:50:01;19.30;;;19.03;;
66371;SDS011;53168;51.146;17.120;2024-03-23T03:52:33;19.40;;;18.98;;
66371;SDS011;53168;51.146;17.120;2024-03-23T03:55:13;20.34;;;19.61;;
66371;SDS011;53168;51.146;17.120;2024-03-23T03:57:46;20.44;;;19.84;;
66371;SDS011;53168;51.146;17.120;2024-03-23T04:00:16;18.68;;;18.30;;
66371;SDS011;53168;51.146;17.120;2024-03-23T04:02:49;19.33;;;18.90;;
66371;SDS011;53168;51.146;17.120;2024-03-23T04:05:21;19.11;;;18.79;;
66371;SDS011;53168;51.146;17.120;2024-03-23T04:07:52;17.81;;;17.46;;
66371;SDS011;53168;51.146;17.120;2024-03-23T04:10:24;18.03;;;17.68;;
66371;SDS011;53168;51.146;17.120;2024-03-23T04:12:55;18.71;;;18.33;;
66371;SDS011;53168;51.146;17.120;2024-03-23T04:15:26;19.31;;;18.88;;
66371;SDS011;53168;51.146;17.120;2024-03-23T04:17:57;18.31;;;17.82;;
66371;SDS011;53168;51.146;17.120;2024-03-23T04:20:29;17.24;;;16.83;;
66371;SDS011;53168;51.146;17.120;2024-03-23T04:23:00;17.40;;;17.28;;
66371;SDS011;53168;51.146;17.120;2024-03-23T04:25:31;18.36;;;17.96;;
66371;SDS011;53168;51.146;17.120;2024-03-23T04:28:02;17.82;;;17.51;;
66371;SDS011;53168;51.146;17.120;2024-03-23T04:30:36;17.62;;;17.26;;
66371;SDS011;53168;51.146;17.120;2024-03-23T04:39:02;18.34;;;17.69;;
66371;SDS011;53168;51.146;17.120;2024-03-23T04:41:40;18.09;;;17.72;;
66371;SDS011;53168;51.146;17.120;2024-03-23T04:44:14;18.40;;;18.10;;
66371;SDS011;53168;51.146;17.120;2024-03-23T04:46:48;18.57;;;18.21;;
66371;SDS011;53168;51.146;17.120;2024-03-23T04:49:22;18.27;;;17.90;;
66371;SDS011;53168;51.146;17.120;2024-03-23T04:51:57;18.03;;;17.77;;
66371;SDS011;53168;51.146;17.120;2024-03-23T04:54:32;18.15;;;17.88;;
66371;SDS011;53168;51.146;17.120;2024-03-23T04:57:06;19.51;;;19.18;;
66371;SDS011;53168;51.146;17.120;2024-03-23T04:59:41;18.87;;;18.51;;
66371;SDS011;53168;51.146;17.120;2024-03-23T05:02:16;18.46;;;18.16;;
66371;SDS011;53168;51.146;17.120;2024-03-23T05:04:50;18.97;;;18.66;;
66371;SDS011;53168;51.146;17.120;2024-03-23T05:07:23;18.65;;;18.25;;
66371;SDS011;53168;51.146;17.120;2024-03-23T05:09:58;18.70;;;18.41;;
66371;SDS011;53168;51.146;17.120;2024-03-23T05:12:33;18.93;;;18.46;;
66371;SDS011;53168;51.146;17.120;2024-03-23T05:15:07;19.03;;;18.64;;
66371;SDS011;53168;51.146;17.120;2024-03-23T05:17:45;19.74;;;19.26;;
66371;SDS011;53168;51.146;17.120;2024-03-23T05:20:19;18.86;;;18.54;;
66371;SDS011;53168;51.146;17.120;2024-03-23T05:22:54;20.08;;;19.63;;
66371;SDS011;53168;51.146;17.120;2024-03-23T05:25:33;19.94;;;19.43;;
66371;SDS011;53168;51.146;17.120;2024-03-23T05:28:56;20.89;;;20.06;;
66371;SDS011;53168;51.146;17.120;2024-03-23T05:31:40;19.71;;;19.40;;
66371;SDS011;53168;51.146;17.120;2024-03-23T05:34:22;19.95;;;19.63;;
66371;SDS011;53168;51.146;17.120;2024-03-23T05:36:58;19.10;;;18.72;;
66371;SDS011;53168;51.146;17.120;2024-03-23T05:39:36;18.95;;;18.72;;
66371;SDS011;53168;51.146;17.120;2024-03-23T05:42:14;19.15;;;18.77;;
66371;SDS011;53168;51.146;17.120;2024-03-23T05:44:48;19.52;;;19.24;;
66371;SDS011;53168;51.146;17.120;2024-03-23T05:47:22;19.00;;;18.73;;
66371;SDS011;53168;51.146;17.120;2024-03-23T05:49:59;19.11;;;18.85;;
66371;SDS011;53168;51.146;17.120;2024-03-23T05:52:34;20.07;;;19.91;;
66371;SDS011;53168;51.146;17.120;2024-03-23T05:55:08;19.24;;;18.89;;
66371;SDS011;53168;51.146;17.120;2024-03-23T05:57:44;18.69;;;18.53;;
66371;SDS011;53168;51.146;17.120;2024-03-23T06:00:18;19.18;;;19.08;;
66371;SDS011;53168;51.146;17.120;2024-03-23T06:02:55;19.23;;;18.88;;
66371;SDS011;53168;51.146;17.120;2024-03-23T06:05:30;19.25;;;19.00;;
66371;SDS011;53168;51.146;17.120;2024-03-23T06:08:09;18.63;;;18.41;;
66371;SDS011;53168;51.146;17.120;2024-03-23T06:10:43;19.39;;;18.94;;
66371;SDS011;53168;51.146;17.120;2024-03-23T06:13:20;19.33;;;19.05;;
66371;SDS011;53168;51.146;17.120;2024-03-23T06:15:59;19.24;;;19.04;;
66371;SDS011;53168;51.146;17.120;2024-03-23T06:18:34;19.60;;;19.26;;
66371;SDS011;53168;51.146;17.120;2024-03-23T06:21:14;19.46;;;19.16;;
66371;SDS011;53168;51.146;17.120;2024-03-23T06:23:51;19.60;;;19.17;;
66371;SDS011;53168;51.146;17.120;2024-03-23T06:26:25;19.98;;;19.53;;
66371;SDS011;53168;51.146;17.120;2024-03-23T06:29:00;17.53;;;17.29;;
66371;SDS011;53168;51.146;17.120;2024-03-23T06:31:35;21.35;;;20.98;;
66371;SDS011;53168;51.146;17.120;2024-03-23T06:34:10;22.03;;;21.50;;
66371;SDS011;53168;51.146;17.120;2024-03-23T06:36:46;21.18;;;20.88;;
66371;SDS011;53168;51.146;17.120;2024-03-23T06:39:20;21.37;;;21.06;;
66371;SDS011;53168;51.146;17.120;2024-03-23T06:41:55;21.45;;;21.00;;
66371;SDS011;53168;51.146;17.120;2024-03-23T06:44:30;20.29;;;19.96;;
66371;SDS011;53168;51.146;17.120;2024-03-23T06:47:05;18.55;;;18.28;;
66371;SDS011;53168;51.146;17.120;2024-03-23T06:49:43;19.66;;;19.38;;
66371;SDS011;53168;51.146;17.120;2024-03-23T06:52:19;17.88;;;17.62;;
66371;SDS011;53168;51.146;17.120;2024-03-23T06:54:54;15.69;;;15.35;;
66371;SDS011;53168;51.146;17.120;2024-03-23T06:57:29;16.17;;;15.95;;
66371;SDS011;53168;51.146;17.120;2024-03-23T07:00:04;16.23;;;16.09;;
66371;SDS011;53168;51.146;17.120;2024-03-23T07:02:42;18.92;;;18.49;;
66371;SDS011;53168;51.146;17.120;2024-03-23T07:05:21;20.04;;;19.30;;
66371;SDS011;53168;51.146;17.120;2024-03-23T07:08:02;19.73;;;19.25;;
66371;SDS011;53168;51.146;17.120;2024-03-23T07:10:40;19.41;;;19.20;;
66371;SDS011;53168;51.146;17.120;2024-03-23T07:13:17;19.66;;;19.32;;
66371;SDS011;53168;51.146;17.120;2024-03-23T07:15:56;18.68;;;18.56;;
66371;SDS011;53168;51.146;17.120;2024-03-23T07:18:35;17.30;;;17.23;;
66371;SDS011;53168;51.146;17.120;2024-03-23T07:21:10;17.53;;;17.46;;
66371;SDS011;53168;51.146;17.120;2024-03-23T07:23:51;16.70;;;16.53;;
66371;SDS011;53168;51.146;17.120;2024-03-23T07:26:29;16.28;;;15.91;;
66371;SDS011;53168;51.146;17.120;2024-03-23T07:29:05;14.27;;;14.04;;
66371;SDS011;53168;51.146;17.120;2024-03-23T07:31:40;17.82;;;17.40;;
66371;SDS011;53168;51.146;17.120;2024-03-23T07:34:16;14.25;;;14.10;;
66371;SDS011;53168;51.146;17.120;2024-03-23T07:36:50;15.31;;;15.12;;
66371;SDS011;53168;51.146;17.120;2024-03-23T07:39:29;15.71;;;15.51;;
66371;SDS011;53168;51.146;17.120;2024-03-23T07:42:04;16.02;;;15.54;;
66371;SDS011;53168;51.146;17.120;2024-03-23T07:44:40;15.94;;;15.72;;
66371;SDS011;53168;51.146;17.120;2024-03-23T07:47:16;15.32;;;15.23;;
66371;SDS011;53168;51.146;17.120;2024-03-23T07:49:51;14.87;;;14.53;;
66371;SDS011;53168;51.146;17.120;2024-03-23T07:52:29;14.79;;;14.63;;
66371;SDS011;53168;51.146;17.120;2024-03-23T07:55:03;12.37;;;12.31;;
66371;SDS011;53168;51.146;17.120;2024-03-23T07:57:38;13.75;;;13.58;;
66371;SDS011;53168;51.146;17.120;2024-03-23T08:00:16;13.70;;;13.53;;
66371;SDS011;53168;51.146;17.120;2024-03-23T08:02:53;12.90;;;12.74;;
66371;SDS011;53168;51.146;17.120;2024-03-23T08:05:28;13.60;;;13.51;;
66371;SDS011;53168;51.146;17.120;2024-03-23T08:08:04;12.16;;;12.12;;
66371;SDS011;53168;51.146;17.120;2024-03-23T08:10:49;13.02;;;12.92;;
66371;SDS011;53168;51.146;17.120;2024-03-23T08:13:24;13.80;;;13.74;;
66371;SDS011;53168;51.146;17.120;2024-03-23T08:15:58;13.06;;;12.97;;
66371;SDS011;53168;51.146;17.120;2024-03-23T08:29:54;12.93;;;12.72;;
66371;SDS011;53168;51.146;17.120;2024-03-23T08:34:11;12.17;;;12.15;;
66371;SDS011;53168;51.146;17.120;2024-03-23T08:36:47;12.84;;;12.77;;
66371;SDS011;53168;51.146;17.120;2024-03-23T08:39:22;13.03;;;12.87;;
66371;SDS011;53168;51.146;17.120;2024-03-23T08:41:58;11.88;;;11.77;;
66371;SDS011;53168;51.146;17.120;2024-03-23T08:44:33;12.55;;;12.37;;
66371;SDS011;53168;51.146;17.120;2024-03-23T08:47:06;11.32;;;11.25;;
66371;SDS011;53168;51.146;17.120;2024-03-23T08:49:41;11.16;;;11.11;;
66371;SDS011;53168;51.146;17.120;2024-03-23T08:52:16;11.32;;;11.19;;
66371;SDS011;53168;51.146;17.120;2024-03-23T08:56:46;11.33;;;11.17;;
66371;SDS011;53168;51.146;17.120;2024-03-23T08:59:17;11.28;;;11.28;;
66371;SDS011;53168;51.146;17.120;2024-03-23T09:01:51;11.64;;;11.58;;
66371;SDS011;53168;51.146;17.120;2024-03-23T09:04:23;11.78;;;11.73;;
66371;SDS011;53168;51.146;17.120;2024-03-23T09:06:54;9.67;;;9.67;;
66371;SDS011;53168;51.146;17.120;2024-03-23T09:09:28;11.88;;;11.86;;
66371;SDS011;53168;51.146;17.120;2024-03-23T09:11:59;12.15;;;12.11;;
66371;SDS011;53168;51.146;17.120;2024-03-23T09:14:31;11.91;;;11.86;;
66371;SDS011;53168;51.146;17.120;2024-03-23T09:17:03;11.45;;;11.35;;
66371;SDS011;53168;51.146;17.120;2024-03-23T09:19:35;10.26;;;10.24;;
66371;SDS011;53168;51.146;17.120;2024-03-23T09:22:07;10.35;;;10.27;;
66371;SDS011;53168;51.146;17.120;2024-03-23T09:24:39;10.38;;;10.35;;
66371;SDS011;53168;51.146;17.120;2024-03-23T09:27:15;10.96;;;10.96;;
66371;SDS011;53168;51.146;17.120;2024-03-23T09:29:49;11.21;;;11.20;;
66371;SDS011;53168;51.146;17.120;2024-03-23T09:32:22;11.95;;;11.91;;
66371;SDS011;53168;51.146;17.120;2024-03-23T09:34:55;11.43;;;11.36;;
66371;SDS011;53168;51.146;17.120;2024-03-23T09:37:26;10.91;;;10.89;;
66371;SDS011;53168;51.146;17.120;2024-03-23T09:39:58;10.04;;;10.02;;
66371;SDS011;53168;51.146;17.120;2024-03-23T09:42:30;11.17;;;11.06;;
66371;SDS011;53168;51.146;17.120;2024-03-23T09:45:01;10.91;;;10.91;;
66371;SDS011;53168;51.146;17.120;2024-03-23T09:47:37;10.78;;;10.63;;
66371;SDS011;53168;51.146;17.120;2024-03-23T09:50:09;9.60;;;9.57;;
66371;SDS011;53168;51.146;17.120;2024-03-23T09:52:40;10.14;;;10.12;;
66371;SDS011;53168;51.146;17.120;2024-03-23T09:55:11;10.31;;;10.30;;
66371;SDS011;53168;51.146;17.120;2024-03-23T09:57:42;11.09;;;11.02;;
66371;SDS011;53168;51.146;17.120;2024-03-23T10:00:14;12.31;;;12.21;;
66371;SDS011;53168;51.146;17.120;2024-03-23T10:02:46;10.39;;;10.38;;
66371;SDS011;53168;51.146;17.120;2024-03-23T10:05:20;11.22;;;11.22;;
66371;SDS011;53168;51.146;17.120;2024-03-23T10:08:02;9.94;;;9.92;;
66371;SDS011;53168;51.146;17.120;2024-03-23T10:10:48;11.50;;;11.49;;
66371;SDS011;53168;51.146;17.120;2024-03-23T10:13:28;11.26;;;11.20;;
66371;SDS011;53168;51.146;17.120;2024-03-23T10:16:00;10.14;;;10.06;;
66371;SDS011;53168;51.146;17.120;2024-03-23T10:18:37;9.93;;;9.93;;
66371;SDS011;53168;51.146;17.120;2024-03-23T10:21:09;9.89;;;9.84;;
66371;SDS011;53168;51.146;17.120;2024-03-23T10:23:41;8.64;;;8.53;;
66371;SDS011;53168;51.146;17.120;2024-03-23T10:26:13;9.46;;;9.44;;
66371;SDS011;53168;51.146;17.120;2024-03-23T10:28:56;10.24;;;10.24;;
66371;SDS011;53168;51.146;17.120;2024-03-23T10:31:29;10.92;;;10.91;;
66371;SDS011;53168;51.146;17.120;2024-03-23T10:34:02;11.96;;;11.94;;
66371;SDS011;53168;51.146;17.120;2024-03-23T10:36:35;11.64;;;11.60;;
66371;SDS011;53168;51.146;17.120;2024-03-23T10:39:11;11.12;;;11.07;;
66371;SDS011;53168;51.146;17.120;2024-03-23T10:41:45;11.76;;;11.72;;
66371;SDS011;53168;51.146;17.120;2024-03-23T10:44:21;11.09;;;11.09;;
66371;SDS011;53168;51.146;17.120;2024-03-23T10:46:57;11.53;;;11.45;;
66371;SDS011;53168;51.146;17.120;2024-03-23T10:49:29;11.62;;;11.51;;
66371;SDS011;53168;51.146;17.120;2024-03-23T10:52:02;10.91;;;10.91;;
66371;SDS011;53168;51.146;17.120;2024-03-23T10:54:35;11.34;;;11.34;;
66371;SDS011;53168;51.146;17.120;2024-03-23T10:57:10;11.08;;;11.08;;
66371;SDS011;53168;51.146;17.120;2024-03-23T10:59:50;10.63;;;10.63;;
66371;SDS011;53168;51.146;17.120;2024-03-23T11:02:24;11.47;;;11.47;;
66371;SDS011;53168;51.146;17.120;2024-03-23T11:04:57;12.20;;;12.20;;
66371;SDS011;53168;51.146;17.120;2024-03-23T11:07:31;12.41;;;12.37;;
66371;SDS011;53168;51.146;17.120;2024-03-23T11:10:03;10.89;;;10.89;;
66371;SDS011;53168;51.146;17.120;2024-03-23T11:12:57;11.96;;;11.96;;
66371;SDS011;53168;51.146;17.120;2024-03-23T11:15:53;12.06;;;12.01;;
66371;SDS011;53168;51.146;17.120;2024-03-23T11:18:40;13.24;;;13.24;;
66371;SDS011;53168;51.146;17.120;2024-03-23T11:21:12;13.33;;;13.32;;
66371;SDS011;53168;51.146;17.120;2024-03-23T11:24:33;12.26;;;12.26;;
66371;SDS011;53168;51.146;17.120;2024-03-23T11:27:16;11.51;;;11.49;;
66371;SDS011;53168;51.146;17.120;2024-03-23T11:29:53;13.91;;;13.87;;
66371;SDS011;53168;51.146;17.120;2024-03-23T11:32:42;12.00;;;11.99;;
66371;SDS011;53168;51.146;17.120;2024-03-23T11:35:26;11.69;;;11.69;;
66371;SDS011;53168;51.146;17.120;2024-03-23T11:38:05;10.17;;;10.17;;
66371;SDS011;53168;51.146;17.120;2024-03-23T11:40:40;9.82;;;9.81;;
66371;SDS011;53168;51.146;17.120;2024-03-23T11:43:13;9.04;;;9.04;;
66371;SDS011;53168;51.146;17.120;2024-03-23T11:45:46;10.48;;;10.48;;
66371;SDS011;53168;51.146;17.120;2024-03-23T11:48:20;9.03;;;9.03;;
66371;SDS011;53168;51.146;17.120;2024-03-23T11:50:55;8.15;;;8.12;;
66371;SDS011;53168;51.146;17.120;2024-03-23T11:53:26;7.94;;;7.91;;
66371;SDS011;53168;51.146;17.120;2024-03-23T11:55:58;7.87;;;7.87;;
66371;SDS011;53168;51.146;17.120;2024-03-23T11:58:30;8.20;;;8.20;;
66371;SDS011;53168;51.146;17.120;2024-03-23T12:01:03;7.24;;;7.24;;
66371;SDS011;53168;51.146;17.120;2024-03-23T12:03:43;7.17;;;7.17;;
66371;SDS011;53168;51.146;17.120;2024-03-23T12:06:20;7.21;;;7.21;;
66371;SDS011;53168;51.146;17.120;2024-03-23T12:08:53;7.25;;;7.25;;
66371;SDS011;53168;51.146;17.120;2024-03-23T12:11:38;7.22;;;7.22;;
66371;SDS011;53168;51.146;17.120;2024-03-23T12:14:09;7.62;;;7.62;;
66371;SDS011;53168;51.146;17.120;2024-03-23T12:16:44;7.41;;;7.41;;
66371;SDS011;53168;51.146;17.120;2024-03-23T12:19:16;6.70;;;6.70;;
66371;SDS011;53168;51.146;17.120;2024-03-23T12:21:47;6.69;;;6.69;;
66371;SDS011;53168;51.146;17.120;2024-03-23T12:24:20;6.47;;;6.47;;
66371;SDS011;53168;51.146;17.120;2024-03-23T12:26:52;6.60;;;6.60;;
66371;SDS011;53168;51.146;17.120;2024-03-23T12:29:30;6.59;;;6.59;;
66371;SDS011;53168;51.146;17.120;2024-03-23T12:32:09;6.47;;;6.47;;
66371;SDS011;53168;51.146;17.120;2024-03-23T12:34:41;6.50;;;6.50;;
66371;SDS011;53168;51.146;17.120;2024-03-23T12:37:16;5.99;;;5.99;;
66371;SDS011;53168;51.146;17.120;2024-03-23T12:39:50;6.38;;;6.38;;
66371;SDS011;53168;51.146;17.120;2024-03-23T12:42:24;6.26;;;6.26;;
66371;SDS011;53168;51.146;17.120;2024-03-23T12:44:56;6.61;;;6.61;;
66371;SDS011;53168;51.146;17.120;2024-03-23T12:47:27;6.24;;;6.24;;
66371;SDS011;53168;51.146;17.120;2024-03-23T12:49:59;6.17;;;6.17;;
66371;SDS011;53168;51.146;17.120;2024-03-23T12:52:31;6.56;;;6.56;;
66371;SDS011;53168;51.146;17.120;2024-03-23T12:55:02;6.49;;;6.49;;
66371;SDS011;53168;51.146;17.120;2024-03-23T12:57:34;6.59;;;6.59;;
66371;SDS011;53168;51.146;17.120;2024-03-23T13:00:06;6.16;;;6.16;;
66371;SDS011;53168;51.146;17.120;2024-03-23T13:02:43;6.15;;;6.15;;
66371;SDS011;53168;51.146;17.120;2024-03-23T13:05:16;6.39;;;6.39;;
66371;SDS011;53168;51.146;17.120;2024-03-23T13:07:50;7.20;;;7.20;;
66371;SDS011;53168;51.146;17.120;2024-03-23T13:10:25;7.34;;;7.34;;
66371;SDS011;53168;51.146;17.120;2024-03-23T13:12:57;7.49;;;7.49;;
66371;SDS011;53168;51.146;17.120;2024-03-23T13:15:29;7.49;;;7.49;;
66371;SDS011;53168;51.146;17.120;2024-03-23T13:18:06;5.11;;;5.11;;
66371;SDS011;53168;51.146;17.120;2024-03-23T13:20:47;5.00;;;5.00;;
66371;SDS011;53168;51.146;17.120;2024-03-23T13:23:22;4.50;;;4.50;;
66371;SDS011;53168;51.146;17.120;2024-03-23T13:25:54;5.69;;;5.69;;
66371;SDS011;53168;51.146;17.120;2024-03-23T13:28:26;5.85;;;5.85;;
66371;SDS011;53168;51.146;17.120;2024-03-23T13:37:47;6.97;;;6.97;;
66371;SDS011;53168;51.146;17.120;2024-03-23T13:41:37;7.90;;;7.89;;
66371;SDS011;53168;51.146;17.120;2024-03-23T13:57:56;5.05;;;5.05;;
66371;SDS011;53168;51.146;17.120;2024-03-23T14:26:52;1.85;;;1.85;;
66371;SDS011;53168;51.146;17.120;2024-03-23T14:29:49;1.86;;;1.86;;
66371;SDS011;53168;51.146;17.120;2024-03-23T14:32:29;1.42;;;1.42;;
66371;SDS011;53168;51.146;17.120;2024-03-23T14:35:09;1.33;;;1.33;;
66371;SDS011;53168;51.146;17.120;2024-03-23T14:37:43;1.22;;;1.22;;
66371;SDS011;53168;51.146;17.120;2024-03-23T14:40:25;1.27;;;1.27;;
66371;SDS011;53168;51.146;17.120;2024-03-23T14:43:05;1.22;;;1.22;;
66371;SDS011;53168;51.146;17.120;2024-03-23T14:46:05;1.09;;;1.09;;
66371;SDS011;53168;51.146;17.120;2024-03-23T14:49:01;1.14;;;1.14;;
66371;SDS011;53168;51.146;17.120;2024-03-23T14:51:42;1.00;;;1.00;;
66371;SDS011;53168;51.146;17.120;2024-03-23T14:54:23;0.86;;;0.86;;
66371;SDS011;53168;51.146;17.120;2024-03-23T14:56:58;0.80;;;0.80;;
66371;SDS011;53168;51.146;17.120;2024-03-23T14:59:36;0.92;;;0.92;;
66371;SDS011;53168;51.146;17.120;2024-03-23T15:02:17;1.17;;;1.17;;
66371;SDS011;53168;51.146;17.120;2024-03-23T15:05:00;1.01;;;1.01;;
66371;SDS011;53168;51.146;17.120;2024-03-23T15:07:42;0.90;;;0.90;;
66371;SDS011;53168;51.146;17.120;2024-03-23T15:13:49;1.03;;;1.03;;
66371;SDS011;53168;51.146;17.120;2024-03-23T15:16:25;1.45;;;1.45;;
66371;SDS011;53168;51.146;17.120;2024-03-23T15:19:02;1.50;;;1.50;;
66371;SDS011;53168;51.146;17.120;2024-03-23T15:21:40;1.32;;;1.32;;
66371;SDS011;53168;51.146;17.120;2024-03-23T15:24:16;1.32;;;1.32;;
66371;SDS011;53168;51.146;17.120;2024-03-23T15:26:54;1.45;;;1.45;;
66371;SDS011;53168;51.146;17.120;2024-03-23T15:29:33;1.18;;;1.18;;
66371;SDS011;53168;51.146;17.120;2024-03-23T15:32:07;1.31;;;1.31;;
66371;SDS011;53168;51.146;17.120;2024-03-23T15:34:47;1.22;;;1.22;;
66371;SDS011;53168;51.146;17.120;2024-03-23T15:37:25;1.39;;;1.39;;
66371;SDS011;53168;51.146;17.120;2024-03-23T15:42:04;1.42;;;1.34;;
66371;SDS011;53168;51.146;17.120;2024-03-23T15:44:40;1.96;;;1.96;;
66371;SDS011;53168;51.146;17.120;2024-03-23T15:47:17;1.93;;;1.93;;
66371;SDS011;53168;51.146;17.120;2024-03-23T15:52:53;1.73;;;1.73;;
66371;SDS011;53168;51.146;17.120;2024-03-23T15:55:29;1.78;;;1.78;;
66371;SDS011;53168;51.146;17.120;2024-03-23T15:58:06;1.64;;;1.64;;
66371;SDS011;53168;51.146;17.120;2024-03-23T16:10:03;1.60;;;1.58;;
66371;SDS011;53168;51.146;17.120;2024-03-23T16:12:41;1.80;;;1.80;;
66371;SDS011;53168;51.146;17.120;2024-03-23T16:15:15;1.71;;;1.71;;
66371;SDS011;53168;51.146;17.120;2024-03-23T16:17:53;2.02;;;2.02;;
66371;SDS011;53168;51.146;17.120;2024-03-23T16:20:27;2.14;;;2.14;;
66371;SDS011;53168;51.146;17.120;2024-03-23T16:23:03;2.28;;;2.28;;
66371;SDS011;53168;51.146;17.120;2024-03-23T16:25:37;2.69;;;2.69;;
66371;SDS011;53168;51.146;17.120;2024-03-23T16:28:25;2.49;;;2.49;;
66371;SDS011;53168;51.146;17.120;2024-03-23T16:31:01;2.74;;;2.74;;
66371;SDS011;53168;51.146;17.120;2024-03-23T16:34:08;2.28;;;2.28;;
66371;SDS011;53168;51.146;17.120;2024-03-23T16:36:46;2.05;;;2.05;;
66371;SDS011;53168;51.146;17.120;2024-03-23T16:39:22;2.12;;;2.12;;
66371;SDS011;53168;51.146;17.120;2024-03-23T16:41:56;2.27;;;2.27;;
66371;SDS011;53168;51.146;17.120;2024-03-23T16:44:30;2.40;;;2.40;;
66371;SDS011;53168;51.146;17.120;2024-03-23T16:47:04;2.48;;;2.48;;
66371;SDS011;53168;51.146;17.120;2024-03-23T16:49:39;2.52;;;2.52;;
66371;SDS011;53168;51.146;17.120;2024-03-23T16:52:13;2.97;;;2.97;;
66371;SDS011;53168;51.146;17.120;2024-03-23T16:54:48;3.33;;;3.33;;
66371;SDS011;53168;51.146;17.120;2024-03-23T16:57:26;2.92;;;2.92;;
66371;SDS011;53168;51.146;17.120;2024-03-23T17:00:01;2.89;;;2.89;;
66371;SDS011;53168;51.146;17.120;2024-03-23T17:02:40;2.79;;;2.79;;
66371;SDS011;53168;51.146;17.120;2024-03-23T17:05:15;2.73;;;2.73;;
66371;SDS011;53168;51.146;17.120;2024-03-23T17:07:55;2.98;;;2.98;;
66371;SDS011;53168;51.146;17.120;2024-03-23T17:10:33;2.70;;;2.70;;
66371;SDS011;53168;51.146;17.120;2024-03-23T17:13:09;2.89;;;2.89;;
66371;SDS011;53168;51.146;17.120;2024-03-23T17:15:43;3.17;;;3.17;;
66371;SDS011;53168;51.146;17.120;2024-03-23T17:18:18;3.22;;;3.22;;
66371;SDS011;53168;51.146;17.120;2024-03-23T17:21:09;3.32;;;3.32;;
66371;SDS011;53168;51.146;17.120;2024-03-23T17:23:43;3.77;;;3.77;;
66371;SDS011;53168;51.146;17.120;2024-03-23T17:26:17;4.47;;;4.47;;
66371;SDS011;53168;51.146;17.120;2024-03-23T17:28:53;4.83;;;4.83;;